Time;durP1;ratioP1;P1;durP2;ratioP2;P2;SDS_P1;SDS_P2;PMS_P1;PMS_P2;Temp;Humidity;BMP_temperature;BMP_pressure;BME280_temperature;BME280_humidity;BME280_pressure;Samples;Min_cycle;Max_cycle;Signal;HPM_P1;HPM_P2
2022/03/22 00:01:41;;;;;;;;;;;23.60;40.00;;;;;;1603030;74;750;-67
2022/03/22 00:03:46;;;;;;;;;;;23.60;40.00;;;;;;1600626;73;784;-68
2022/03/22 00:05:47;;;;;;;;;;;23.60;40.00;;;;;;1598284;74;1660;-68
2022/03/22 00:07:49;;;;;;;;;;;23.70;40.20;;;;;;1598722;74;1119;-68
2022/03/22 00:09:51;;;;;;;;;;;23.60;40.10;;;;;;1599418;74;784;-68
2022/03/22 00:11:52;;;;;;;;;;;23.60;40.00;;;;;;1597222;73;732;-68
2022/03/22 00:13:54;;;;;;;;;;;23.70;40.20;;;;;;1598921;74;813;-68
2022/03/22 00:15:56;;;;;;;;;;;23.70;40.20;;;;;;1598880;74;776;-68
2022/03/22 00:17:59;;;;;;;;;;;23.70;40.20;;;;;;1598976;74;1920;-68
2022/03/22 00:20:01;;;;;;;;;;;23.70;40.30;;;;;;1595239;74;622;-69
2022/03/22 00:22:02;;;;;;;;;;;23.70;40.20;;;;;;1599115;73;817;-69
2022/03/22 00:24:05;;;;;;;;;;;23.70;40.30;;;;;;1600301;73;675;-68
2022/03/22 00:26:07;;;;;;;;;;;23.70;40.20;;;;;;1596420;73;731;-68
2022/03/22 00:28:08;;;;;;;;;;;23.70;40.30;;;;;;1594774;74;1104;-67
2022/03/22 00:30:10;;;;;;;;;;;23.70;40.20;;;;;;1598863;74;845;-68
2022/03/22 00:32:12;;;;;;;;;;;23.70;40.30;;;;;;1600544;74;854;-68
2022/03/22 00:34:14;;;;;;;;;;;23.70;40.30;;;;;;1601038;73;774;-67
2022/03/22 00:36:16;;;;;;;;;;;23.70;40.30;;;;;;1601658;74;711;-67
2022/03/22 00:38:20;;;;;;;;;;;23.70;40.30;;;;;;1599397;73;1897;-67
2022/03/22 00:40:22;;;;;;;;;;;23.70;40.30;;;;;;1601474;73;794;-68
2022/03/22 00:42:24;;;;;;;;;;;23.80;40.20;;;;;;1599512;74;735;-68
2022/03/22 00:44:25;;;;;;;;;;;23.70;40.30;;;;;;1601396;73;770;-68
2022/03/22 00:46:27;;;;;;;;;;;23.70;40.30;;;;;;1601617;74;767;-67
2022/03/22 00:48:29;;;;;;;;;;;23.70;40.40;;;;;;1592327;74;767;-67
2022/03/22 00:50:33;;;;;;;;;;;23.80;40.40;;;;;;1601051;73;893;-67
2022/03/22 00:52:36;;;;;;;;;;;23.80;40.40;;;;;;1600989;74;717;-68
2022/03/22 00:54:37;;;;;;;;;;;23.80;40.40;;;;;;1599107;73;803;-68
2022/03/22 00:56:39;;;;;;;;;;;23.70;40.40;;;;;;1600896;74;1941;-71
2022/03/22 00:58:41;;;;;;;;;;;23.80;40.40;;;;;;1597849;74;786;-69
2022/03/22 01:00:43;;;;;;;;;;;23.80;40.50;;;;;;1600148;74;778;-70
2022/03/22 01:02:49;;;;;;;;;;;23.70;40.50;;;;;;1602479;73;772;-67
2022/03/22 01:04:49;;;;;;;;;;;23.90;40.60;;;;;;1601073;74;1524;-67
2022/03/22 01:06:51;;;;;;;;;;;23.80;40.50;;;;;;1599971;74;1191;-67
2022/03/22 01:08:53;;;;;;;;;;;23.90;40.60;;;;;;1595529;74;737;-69
2022/03/22 01:10:55;;;;;;;;;;;23.90;40.70;;;;;;1600828;74;754;-69
2022/03/22 01:12:57;;;;;;;;;;;23.80;40.60;;;;;;1600855;73;838;-68
2022/03/22 01:14:59;;;;;;;;;;;23.80;40.60;;;;;;1590461;74;803;-67
2022/03/22 01:17:01;;;;;;;;;;;23.80;40.50;;;;;;1599522;73;1958;-67
2022/03/22 01:19:03;;;;;;;;;;;23.70;40.60;;;;;;1590367;73;697;-69
2022/03/22 01:21:04;;;;;;;;;;;23.70;40.70;;;;;;1599495;74;818;-68
2022/03/22 01:23:07;;;;;;;;;;;23.80;40.60;;;;;;1602734;74;696;-68
2022/03/22 01:25:10;;;;;;;;;;;23.80;40.70;;;;;;1594243;73;626;-68
2022/03/22 01:27:12;;;;;;;;;;;23.70;40.70;;;;;;1602511;73;1130;-67
2022/03/22 01:29:14;;;;;;;;;;;23.80;40.70;;;;;;1600259;74;877;-67
2022/03/22 01:31:16;;;;;;;;;;;23.80;40.70;;;;;;1601616;74;779;-68
2022/03/22 01:33:18;;;;;;;;;;;23.70;40.70;;;;;;1601831;74;682;-67
2022/03/22 01:35:19;;;;;;;;;;;23.70;40.70;;;;;;1598003;73;625;-68
2022/03/22 01:37:21;;;;;;;;;;;23.90;40.90;;;;;;1600808;74;1957;-68
2022/03/22 01:39:23;;;;;;;;;;;23.80;40.80;;;;;;1595908;74;664;-69
2022/03/22 01:41:25;;;;;;;;;;;23.80;40.80;;;;;;1604517;73;729;-69
2022/03/22 01:43:27;;;;;;;;;;;23.90;40.90;;;;;;1596268;73;798;-68
2022/03/22 01:45:29;;;;;;;;;;;23.80;40.70;;;;;;1600687;74;808;-67
2022/03/22 01:47:31;;;;;;;;;;;23.90;40.80;;;;;;1601146;74;1118;-67
2022/03/22 01:49:33;;;;;;;;;;;23.80;40.70;;;;;;1601439;74;796;-67
2022/03/22 01:51:35;;;;;;;;;;;23.90;40.80;;;;;;1601790;74;692;-67
2022/03/22 01:53:37;;;;;;;;;;;23.80;40.70;;;;;;1598084;73;747;-67
2022/03/22 01:55:39;;;;;;;;;;;23.90;40.80;;;;;;1596679;73;783;-69
2022/03/22 01:57:41;;;;;;;;;;;23.90;40.80;;;;;;1589585;74;1925;-69
2022/03/22 01:59:42;;;;;;;;;;;23.90;40.80;;;;;;1591819;73;779;-67
2022/03/22 02:06:24;;;;;;;;;;;23.90;40.80;;;;;;1578299;74;1629;-67
2022/03/22 02:08:27;;;;;;;;;;;23.80;40.70;;;;;;1595439;73;1137;-66
2022/03/22 02:10:29;;;;;;;;;;;23.80;40.80;;;;;;1583691;73;757;-69
2022/03/22 02:12:31;;;;;;;;;;;23.90;40.90;;;;;;1595627;73;777;-67
2022/03/22 02:14:32;;;;;;;;;;;23.80;40.80;;;;;;1596247;74;761;-67
2022/03/22 02:16:34;;;;;;;;;;;23.80;40.80;;;;;;1590071;73;1139;-67
2022/03/22 02:18:36;;;;;;;;;;;23.90;41.00;;;;;;1604805;72;1935;-67
2022/03/22 02:20:38;;;;;;;;;;;23.90;41.00;;;;;;1593363;74;789;-67
2022/03/22 02:22:42;;;;;;;;;;;23.90;41.00;;;;;;1588075;73;769;-67
2022/03/22 02:24:44;;;;;;;;;;;23.80;40.90;;;;;;1581460;74;991;-70
2022/03/22 02:26:46;;;;;;;;;;;23.90;41.00;;;;;;1588393;73;1144;-66
2022/03/22 02:28:53;;;;;;;;;;;23.90;41.00;;;;;;1592929;73;766;-67
2022/03/22 02:30:52;;;;;;;;;;;23.90;41.00;;;;;;1591131;73;1580;-66
2022/03/22 02:32:55;;;;;;;;;;;23.80;40.90;;;;;;1597680;73;708;-67
2022/03/22 02:34:57;;;;;;;;;;;23.90;41.00;;;;;;1604525;73;1103;-68
2022/03/22 02:36:59;;;;;;;;;;;23.90;40.90;;;;;;1602032;73;1139;-68
2022/03/22 02:39:01;;;;;;;;;;;23.90;41.00;;;;;;1590736;73;1935;-67
2022/03/22 02:41:03;;;;;;;;;;;23.80;40.90;;;;;;1584491;73;726;-67
2022/03/22 02:43:05;;;;;;;;;;;23.80;40.90;;;;;;1584842;73;736;-67
2022/03/22 02:45:07;;;;;;;;;;;23.80;41.00;;;;;;1583506;74;755;-67
2022/03/22 02:47:09;;;;;;;;;;;23.80;41.00;;;;;;1578593;73;1180;-67
2022/03/22 02:49:12;;;;;;;;;;;23.90;41.10;;;;;;1594947;73;733;-68
2022/03/22 02:51:14;;;;;;;;;;;23.90;41.10;;;;;;1589949;73;782;-66
2022/03/22 02:53:16;;;;;;;;;;;23.80;41.00;;;;;;1590100;73;781;-67
2022/03/22 02:55:20;;;;;;;;;;;23.80;41.00;;;;;;1589029;73;755;-66
2022/03/22 02:57:22;;;;;;;;;;;23.90;41.10;;;;;;1582009;74;1948;-68
2022/03/22 02:59:23;;;;;;;;;;;23.80;41.00;;;;;;1586231;74;770;-68
2022/03/22 03:01:25;;;;;;;;;;;23.80;41.10;;;;;;1587318;74;781;-67
2022/03/22 03:03:28;;;;;;;;;;;23.80;41.00;;;;;;1584451;73;795;-67
2022/03/22 03:05:29;;;;;;;;;;;23.90;41.10;;;;;;1589138;74;780;-67
2022/03/22 03:07:31;;;;;;;;;;;23.80;41.10;;;;;;1597332;73;1131;-66
2022/03/22 03:09:33;;;;;;;;;;;23.80;41.00;;;;;;1589957;73;758;-67
2022/03/22 03:11:35;;;;;;;;;;;23.80;41.00;;;;;;1583446;73;756;-67
2022/03/22 03:15:52;;;;;;;;;;;23.80;41.10;;;;;;1545657;73;1089;-66
2022/03/22 03:17:54;;;;;;;;;;;23.90;41.20;;;;;;1597144;73;1939;-66
2022/03/22 03:19:56;;;;;;;;;;;23.90;41.10;;;;;;1588279;73;784;-67
2022/03/22 03:21:58;;;;;;;;;;;23.90;41.20;;;;;;1576289;74;675;-68
2022/03/22 03:24:00;;;;;;;;;;;23.90;41.20;;;;;;1593084;73;768;-68
2022/03/22 03:26:02;;;;;;;;;;;24.00;41.10;;;;;;1582046;73;867;-67
2022/03/22 03:28:04;;;;;;;;;;;24.00;41.10;;;;;;1590591;73;1096;-67
2022/03/22 03:30:06;;;;;;;;;;;24.00;41.10;;;;;;1587884;73;755;-68
2022/03/22 03:32:08;;;;;;;;;;;24.00;41.20;;;;;;1578584;74;761;-66
2022/03/22 03:34:10;;;;;;;;;;;23.90;41.30;;;;;;1589892;73;765;-66
2022/03/22 03:36:12;;;;;;;;;;;24.00;41.40;;;;;;1581008;73;735;-68
2022/03/22 03:38:14;;;;;;;;;;;23.90;41.80;;;;;;1593799;73;1952;-67
2022/03/22 03:40:16;;;;;;;;;;;23.90;42.10;;;;;;1579420;73;739;-66
2022/03/22 03:42:18;;;;;;;;;;;23.70;42.30;;;;;;1581390;73;699;-68
2022/03/22 03:49:06;;;;;;;;;;;23.70;42.80;;;;;;1589574;73;1625;-67
2022/03/22 03:51:07;;;;;;;;;;;23.60;42.80;;;;;;1601524;74;1453;-67
2022/03/22 03:53:09;;;;;;;;;;;23.60;42.90;;;;;;1603214;74;786;-68
2022/03/22 03:55:11;;;;;;;;;;;23.60;43.10;;;;;;1595459;73;751;-68
2022/03/22 03:57:13;;;;;;;;;;;23.60;43.10;;;;;;1598842;74;1135;-67
2022/03/22 03:59:15;;;;;;;;;;;23.60;43.10;;;;;;1598661;74;1933;-67
2022/03/22 04:01:17;;;;;;;;;;;23.60;43.00;;;;;;1601569;74;808;-67
2022/03/22 04:03:19;;;;;;;;;;;23.60;43.00;;;;;;1598173;73;953;-67
2022/03/22 04:05:21;;;;;;;;;;;23.60;43.10;;;;;;1601579;74;645;-68
2022/03/22 04:07:23;;;;;;;;;;;23.60;43.10;;;;;;1602705;74;1166;-68
2022/03/22 04:09:25;;;;;;;;;;;23.60;43.00;;;;;;1604677;73;781;-68
2022/03/22 04:11:27;;;;;;;;;;;23.60;43.00;;;;;;1601625;73;828;-67
2022/03/22 04:13:29;;;;;;;;;;;23.70;43.10;;;;;;1601711;74;726;-68
2022/03/22 04:15:31;;;;;;;;;;;23.60;42.90;;;;;;1601185;74;796;-68
2022/03/22 04:17:34;;;;;;;;;;;23.70;43.10;;;;;;1599226;74;1137;-67
2022/03/22 04:19:36;;;;;;;;;;;23.70;43.10;;;;;;1598671;74;1911;-66
2022/03/22 04:21:38;;;;;;;;;;;23.70;43.30;;;;;;1601148;73;753;-68
2022/03/22 04:23:40;;;;;;;;;;;23.70;43.30;;;;;;1585875;74;774;-67
2022/03/22 04:25:42;;;;;;;;;;;23.70;43.20;;;;;;1597983;73;721;-66
2022/03/22 04:34:43;;;;;;;;;;;23.70;43.10;;;;;;1597900;73;1650;-66
2022/03/22 04:36:55;;;;;;;;;;;23.70;43.20;;;;;;1601483;73;1298;-68
2022/03/22 04:38:49;;;;;;;;;;;23.70;43.20;;;;;;1586672;73;1933;-67
2022/03/22 04:40:51;;;;;;;;;;;23.70;43.20;;;;;;1593674;73;791;-68
2022/03/22 04:42:53;;;;;;;;;;;23.70;43.20;;;;;;1591404;73;727;-67
2022/03/22 04:44:55;;;;;;;;;;;23.80;43.30;;;;;;1594072;73;706;-67
2022/03/22 04:46:57;;;;;;;;;;;23.70;43.30;;;;;;1594249;73;1111;-69
2022/03/22 04:48:59;;;;;;;;;;;23.80;43.10;;;;;;1589230;73;720;-68
2022/03/22 04:58:00;;;;;;;;;;;23.80;43.10;;;;;;1591534;73;1931;-66
2022/03/22 05:00:02;;;;;;;;;;;23.90;43.10;;;;;;1594640;73;727;-66
2022/03/22 05:02:04;;;;;;;;;;;23.80;43.00;;;;;;1596114;73;791;-65
2022/03/22 05:04:06;;;;;;;;;;;23.80;43.00;;;;;;1598494;74;709;-66
2022/03/22 05:06:26;;;;;;;;;;;23.90;43.00;;;;;;1597904;73;718;-67
2022/03/22 05:08:27;;;;;;;;;;;23.80;42.90;;;;;;1601761;73;1151;-67
2022/03/22 05:10:29;;;;;;;;;;;23.90;43.00;;;;;;1598478;73;798;-67
2022/03/22 05:12:31;;;;;;;;;;;23.90;42.90;;;;;;1598818;73;732;-66
2022/03/22 05:14:35;;;;;;;;;;;23.80;42.80;;;;;;1595467;73;861;-67
2022/03/22 05:16:37;;;;;;;;;;;23.90;42.90;;;;;;1587797;74;1287;-66
2022/03/22 05:18:38;;;;;;;;;;;23.90;43.00;;;;;;1598036;73;1925;-67
2022/03/22 05:20:40;;;;;;;;;;;23.80;43.00;;;;;;1593504;73;647;-70
2022/03/22 05:22:42;;;;;;;;;;;23.90;43.10;;;;;;1580736;73;701;-66
2022/03/22 05:24:45;;;;;;;;;;;23.90;43.10;;;;;;1593658;73;778;-66
2022/03/22 05:26:46;;;;;;;;;;;23.90;43.10;;;;;;1586929;73;1145;-69
2022/03/22 05:28:48;;;;;;;;;;;23.90;43.10;;;;;;1588105;73;751;-67
2022/03/22 05:30:50;;;;;;;;;;;23.90;43.10;;;;;;1585920;73;656;-66
2022/03/22 05:32:52;;;;;;;;;;;23.80;43.00;;;;;;1588591;73;729;-67
2022/03/22 05:34:54;;;;;;;;;;;23.90;43.10;;;;;;1590083;73;773;-67
2022/03/22 05:36:56;;;;;;;;;;;23.90;43.00;;;;;;1592953;73;1150;-68
2022/03/22 05:38:58;;;;;;;;;;;23.90;43.10;;;;;;1588295;73;1946;-67
2022/03/22 05:41:06;;;;;;;;;;;23.90;43.30;;;;;;1588009;73;792;-67
2022/03/22 05:43:04;;;;;;;;;;;24.00;43.30;;;;;;1587654;73;1529;-68
2022/03/22 05:45:08;;;;;;;;;;;23.90;43.30;;;;;;1599081;73;921;-65
2022/03/22 05:47:11;;;;;;;;;;;23.90;43.20;;;;;;1592621;74;1156;-64
2022/03/22 05:49:13;;;;;;;;;;;24.00;42.80;;;;;;1601869;74;651;-68
2022/03/22 05:51:20;;;;;;;;;;;24.00;42.60;;;;;;1599778;73;770;-68
2022/03/22 05:53:19;;;;;;;;;;;24.00;42.40;;;;;;1593620;74;1244;-68
2022/03/22 05:55:21;;;;;;;;;;;23.90;42.10;;;;;;1598794;73;1122;-69
2022/03/22 05:57:23;;;;;;;;;;;23.90;41.80;;;;;;1594833;74;1124;-70
2022/03/22 05:59:25;;;;;;;;;;;23.90;41.80;;;;;;1602787;74;1929;-71
2022/03/22 06:01:27;;;;;;;;;;;23.90;41.30;;;;;;1599247;74;780;-69
2022/03/22 06:03:29;;;;;;;;;;;24.00;41.00;;;;;;1597691;73;810;-67
2022/03/22 06:05:31;;;;;;;;;;;24.00;41.20;;;;;;1601728;74;786;-69
2022/03/22 06:07:33;;;;;;;;;;;24.00;41.00;;;;;;1601174;74;1188;-69
2022/03/22 06:09:35;;;;;;;;;;;24.00;41.00;;;;;;1598187;73;652;-68
2022/03/22 06:11:37;;;;;;;;;;;24.00;41.00;;;;;;1591993;73;758;-68
2022/03/22 06:13:39;;;;;;;;;;;23.90;41.00;;;;;;1599621;73;786;-68
2022/03/22 06:15:40;;;;;;;;;;;24.00;41.10;;;;;;1585423;73;754;-66
2022/03/22 06:17:49;;;;;;;;;;;23.90;41.20;;;;;;1599387;73;1144;-64
2022/03/22 06:19:51;;;;;;;;;;;23.90;41.20;;;;;;1598525;74;1911;-65
2022/03/22 06:21:53;;;;;;;;;;;24.00;41.00;;;;;;1598849;74;780;-65
2022/03/22 06:23:55;;;;;;;;;;;24.00;41.10;;;;;;1598651;73;708;-69
2022/03/22 06:25:56;;;;;;;;;;;24.00;41.20;;;;;;1600274;73;745;-67
2022/03/22 06:27:58;;;;;;;;;;;24.00;41.20;;;;;;1599875;74;1124;-70
2022/03/22 06:30:00;;;;;;;;;;;24.00;41.20;;;;;;1601736;74;779;-66
2022/03/22 06:32:02;;;;;;;;;;;23.90;41.30;;;;;;1601548;74;777;-64
2022/03/22 06:34:04;;;;;;;;;;;24.00;41.10;;;;;;1591761;73;795;-67
2022/03/22 06:36:08;;;;;;;;;;;24.00;41.20;;;;;;1599905;74;828;-66
2022/03/22 06:38:10;;;;;;;;;;;24.00;41.30;;;;;;1600189;74;1155;-67
2022/03/22 06:40:12;;;;;;;;;;;24.00;41.10;;;;;;1602420;73;1924;-70
2022/03/22 06:42:14;;;;;;;;;;;23.90;41.10;;;;;;1599887;73;752;-68
2022/03/22 06:44:16;;;;;;;;;;;24.00;41.00;;;;;;1601530;73;782;-68
2022/03/22 06:46:18;;;;;;;;;;;23.90;41.00;;;;;;1583329;73;883;-67
2022/03/22 06:48:22;;;;;;;;;;;24.00;40.90;;;;;;1579343;73;1118;-74
2022/03/22 06:50:25;;;;;;;;;;;24.00;40.90;;;;;;1585170;74;637;-66
2022/03/22 06:52:27;;;;;;;;;;;24.10;40.80;;;;;;1592189;73;802;-67
2022/03/22 06:54:29;;;;;;;;;;;24.00;40.10;;;;;;1593803;73;767;-68
2022/03/22 06:56:31;;;;;;;;;;;24.00;40.00;;;;;;1586828;73;1188;-69
2022/03/22 06:58:33;;;;;;;;;;;24.00;40.10;;;;;;1601766;73;694;-69
2022/03/22 07:00:35;;;;;;;;;;;24.00;40.10;;;;;;1598834;73;1905;-69
2022/03/22 07:02:39;;;;;;;;;;;23.90;40.10;;;;;;1597291;73;801;-68
2022/03/22 07:04:41;;;;;;;;;;;24.00;40.10;;;;;;1594461;74;673;-70
2022/03/22 07:06:43;;;;;;;;;;;23.90;40.00;;;;;;1600014;73;1159;-72
2022/03/22 07:08:45;;;;;;;;;;;24.00;39.90;;;;;;1600262;73;759;-67
2022/03/22 07:11:47;;;;;;;;;;;24.00;40.10;;;;;;1600699;73;810;-69
2022/03/22 07:12:51;;;;;;;;;;;23.90;39.80;;;;;;1593530;74;1278;-68
2022/03/22 07:14:53;;;;;;;;;;;24.00;39.70;;;;;;1601159;74;693;-68
2022/03/22 07:16:55;;;;;;;;;;;24.00;39.70;;;;;;1591676;73;1130;-68
2022/03/22 07:18:57;;;;;;;;;;;24.00;39.70;;;;;;1589130;73;1933;-68
2022/03/22 07:21:04;;;;;;;;;;;24.00;39.70;;;;;;1598558;74;743;-69
2022/03/22 07:23:02;;;;;;;;;;;23.90;39.70;;;;;;1598712;74;1486;-68
2022/03/22 07:25:05;;;;;;;;;;;23.90;39.70;;;;;;1599594;73;742;-68
2022/03/22 07:27:06;;;;;;;;;;;23.90;39.80;;;;;;1590252;73;1109;-68
2022/03/22 07:29:08;;;;;;;;;;;23.90;39.80;;;;;;1598291;74;804;-69
2022/03/22 07:31:10;;;;;;;;;;;23.90;39.80;;;;;;1597250;74;747;-70
2022/03/22 07:33:13;;;;;;;;;;;23.90;39.70;;;;;;1599921;74;814;-67
2022/03/22 07:35:17;;;;;;;;;;;23.80;39.60;;;;;;1596580;73;691;-68
2022/03/22 07:37:18;;;;;;;;;;;23.90;39.70;;;;;;1597235;74;1788;-70
2022/03/22 07:39:21;;;;;;;;;;;23.90;39.70;;;;;;1597201;74;1931;-76
2022/03/22 07:41:22;;;;;;;;;;;23.90;40.00;;;;;;1606063;73;688;-69
2022/03/22 07:43:26;;;;;;;;;;;24.00;39.50;;;;;;1598319;73;784;-68
2022/03/22 07:45:28;;;;;;;;;;;24.00;39.30;;;;;;1601158;74;721;-70
2022/03/22 07:47:30;;;;;;;;;;;24.10;39.30;;;;;;1598900;74;1176;-68
2022/03/22 07:54:11;;;;;;;;;;;24.20;38.90;;;;;;1596292;73;1642;-69
2022/03/22 07:56:13;;;;;;;;;;;24.20;38.70;;;;;;1599162;74;733;-69
2022/03/22 07:58:15;;;;;;;;;;;24.20;38.60;;;;;;1600683;74;1142;-69
2022/03/22 08:00:19;;;;;;;;;;;24.30;38.60;;;;;;1593104;73;1937;-72
2022/03/22 08:02:20;;;;;;;;;;;24.30;38.40;;;;;;1592196;73;1442;-69
2022/03/22 08:04:22;;;;;;;;;;;24.40;38.30;;;;;;1598641;74;697;-69
2022/03/22 08:06:24;;;;;;;;;;;24.40;38.10;;;;;;1598664;74;800;-68
2022/03/22 08:08:26;;;;;;;;;;;24.50;38.00;;;;;;1602295;73;1116;-78
2022/03/22 08:10:31;;;;;;;;;;;24.40;37.70;;;;;;1600871;73;722;-77
2022/03/22 08:12:32;;;;;;;;;;;24.50;37.80;;;;;;1602728;74;992;-75
2022/03/22 08:14:34;;;;;;;;;;;24.60;37.60;;;;;;1599268;74;845;-73
2022/03/22 08:16:40;;;;;;;;;;;24.60;37.50;;;;;;1592673;73;1144;-68
2022/03/22 08:18:42;;;;;;;;;;;24.70;37.60;;;;;;1598222;73;689;-69
2022/03/22 08:20:44;;;;;;;;;;;24.60;37.30;;;;;;1597824;73;1976;-71
2022/03/22 08:22:53;;;;;;;;;;;24.70;37.50;;;;;;1581579;73;712;-72
2022/03/22 08:24:55;;;;;;;;;;;24.70;37.50;;;;;;1589189;73;919;-71
2022/03/22 08:26:57;;;;;;;;;;;24.70;37.40;;;;;;1597148;73;1155;-69
2022/03/22 08:28:59;;;;;;;;;;;24.80;37.30;;;;;;1597127;73;747;-69
2022/03/22 08:31:01;;;;;;;;;;;24.80;37.30;;;;;;1592369;73;914;-68
2022/03/22 08:33:09;;;;;;;;;;;24.80;37.30;;;;;;1589240;73;692;-69
2022/03/22 08:35:11;;;;;;;;;;;24.90;37.30;;;;;;1588048;73;755;-70
2022/03/22 08:37:13;;;;;;;;;;;24.90;37.30;;;;;;1583072;73;1096;-69
2022/03/22 08:39:15;;;;;;;;;;;24.90;37.30;;;;;;1586898;73;732;-70
2022/03/22 08:41:17;;;;;;;;;;;24.90;37.20;;;;;;1594689;73;1940;-71
2022/03/22 08:43:22;;;;;;;;;;;25.00;37.10;;;;;;1595378;73;728;-70
2022/03/22 08:45:24;;;;;;;;;;;24.90;36.90;;;;;;1597239;73;831;-69
2022/03/22 08:47:27;;;;;;;;;;;25.00;36.80;;;;;;1598053;73;1144;-69
2022/03/22 08:49:29;;;;;;;;;;;24.90;36.70;;;;;;1595488;73;677;-69
2022/03/22 08:51:31;;;;;;;;;;;24.90;36.60;;;;;;1590902;73;763;-72
2022/03/22 08:53:33;;;;;;;;;;;25.00;36.60;;;;;;1596775;73;716;-72
2022/03/22 08:55:36;;;;;;;;;;;25.00;36.50;;;;;;1592338;73;714;-69
2022/03/22 08:57:37;;;;;;;;;;;25.00;36.40;;;;;;1593202;73;1143;-69
2022/03/22 08:59:39;;;;;;;;;;;25.00;36.50;;;;;;1590961;73;1938;-70
2022/03/22 09:01:42;;;;;;;;;;;25.00;36.40;;;;;;1591393;73;764;-68
2022/03/22 09:06:07;;;;;;;;;;;25.10;36.50;;;;;;1583564;73;736;-68
2022/03/22 09:08:07;;;;;;;;;;;25.00;36.50;;;;;;1588080;73;1521;-68
2022/03/22 09:10:09;;;;;;;;;;;25.10;36.40;;;;;;1592975;73;733;-69
2022/03/22 09:12:12;;;;;;;;;;;25.10;36.30;;;;;;1598208;74;771;-68
2022/03/22 09:14:14;;;;;;;;;;;25.10;36.30;;;;;;1601404;73;739;-65
2022/03/22 09:16:16;;;;;;;;;;;25.10;36.70;;;;;;1598175;74;711;-65
2022/03/22 09:18:18;;;;;;;;;;;25.30;36.00;;;;;;1599600;74;1089;-65
2022/03/22 09:20:20;;;;;;;;;;;25.40;36.50;;;;;;1597319;73;1969;-69
2022/03/22 09:22:21;;;;;;;;;;;25.40;35.20;;;;;;1587033;73;716;-67
2022/03/22 09:24:23;;;;;;;;;;;25.40;35.00;;;;;;1581345;73;694;-64
2022/03/22 09:26:25;;;;;;;;;;;25.40;32.40;;;;;;1586494;73;711;-64
2022/03/22 09:28:27;;;;;;;;;;;25.40;34.10;;;;;;1591215;73;1101;-65
2022/03/22 09:30:29;;;;;;;;;;;25.30;34.10;;;;;;1581834;73;708;-64
2022/03/22 09:32:31;;;;;;;;;;;25.30;33.70;;;;;;1595730;73;703;-65
2022/03/22 09:34:33;;;;;;;;;;;25.30;33.40;;;;;;1594397;73;633;-69
2022/03/22 09:36:35;;;;;;;;;;;25.20;32.00;;;;;;1597390;74;1135;-69
2022/03/22 09:38:37;;;;;;;;;;;25.30;32.20;;;;;;1595496;74;680;-69
2022/03/22 09:40:39;;;;;;;;;;;25.10;27.70;;;;;;1599927;73;1914;-68
2022/03/22 09:42:42;;;;;;;;;;;25.00;30.90;;;;;;1590949;73;767;-67
2022/03/22 09:44:44;;;;;;;;;;;25.00;30.70;;;;;;1586526;73;736;-64
2022/03/22 09:46:48;;;;;;;;;;;24.90;28.30;;;;;;1592813;73;1186;-66
2022/03/22 09:48:50;;;;;;;;;;;24.90;29.00;;;;;;1583926;73;741;-66
2022/03/22 09:53:12;;;;;;;;;;;24.80;29.30;;;;;;1590338;73;770;-68
2022/03/22 09:55:16;;;;;;;;;;;24.80;29.50;;;;;;1588690;73;752;-65
2022/03/22 09:57:18;;;;;;;;;;;24.70;29.40;;;;;;1581356;73;1677;-66
2022/03/22 09:59:20;;;;;;;;;;;24.60;27.00;;;;;;1593831;73;738;-67
2022/03/22 10:01:21;;;;;;;;;;;24.50;28.40;;;;;;1595205;74;1907;-65
2022/03/22 10:03:23;;;;;;;;;;;24.50;28.50;;;;;;1595870;73;666;-65
2022/03/22 10:05:30;;;;;;;;;;;24.50;28.90;;;;;;1599948;74;713;-65
2022/03/22 10:07:29;;;;;;;;;;;24.50;28.90;;;;;;1597188;74;1227;-65
2022/03/22 10:09:32;;;;;;;;;;;24.50;28.40;;;;;;1595626;73;700;-65
2022/03/22 10:11:37;;;;;;;;;;;24.40;28.70;;;;;;1590979;73;777;-66
2022/03/22 10:13:54;;;;;;;;;;;24.50;29.00;;;;;;1590176;73;837;-65
2022/03/22 10:16:03;;;;;;;;;;;24.40;28.80;;;;;;1595597;73;713;-66
2022/03/22 10:18:08;;;;;;;;;;;24.40;28.50;;;;;;1595583;73;1144;-67
2022/03/22 10:20:12;;;;;;;;;;;24.40;28.30;;;;;;1594488;73;1930;-65
2022/03/22 10:22:14;;;;;;;;;;;24.30;28.30;;;;;;1591698;73;1681;-67
2022/03/22 10:24:15;;;;;;;;;;;24.40;28.50;;;;;;1592525;73;720;-67
2022/03/22 10:26:17;;;;;;;;;;;24.40;28.20;;;;;;1584940;74;696;-68
2022/03/22 10:28:19;;;;;;;;;;;24.40;28.40;;;;;;1591757;74;1076;-67
2022/03/22 10:30:21;;;;;;;;;;;24.40;28.60;;;;;;1594723;74;735;-67
2022/03/22 10:32:33;;;;;;;;;;;24.30;28.70;;;;;;1594520;73;743;-66
2022/03/22 10:34:34;;;;;;;;;;;24.30;28.60;;;;;;1595387;74;721;-67
2022/03/22 10:36:36;;;;;;;;;;;24.30;28.40;;;;;;1597806;74;1153;-67
2022/03/22 10:38:38;;;;;;;;;;;24.20;26.80;;;;;;1595425;74;772;-68
2022/03/22 10:40:41;;;;;;;;;;;24.20;27.10;;;;;;1600182;73;1936;-69
2022/03/22 10:42:42;;;;;;;;;;;24.20;26.60;;;;;;1598782;73;746;-67
2022/03/22 10:44:44;;;;;;;;;;;24.10;26.00;;;;;;1563372;75;1237;-67
2022/03/22 10:46:47;;;;;;;;;;;24.10;26.20;;;;;;1530490;76;1162;-69
2022/03/22 10:48:49;;;;;;;;;;;24.20;26.60;;;;;;1554185;76;766;-65
2022/03/22 10:50:51;;;;;;;;;;;24.10;27.00;;;;;;1596118;73;779;-67
2022/03/22 10:52:57;;;;;;;;;;;24.10;27.30;;;;;;1583209;73;937;-67
2022/03/22 10:54:59;;;;;;;;;;;24.10;27.40;;;;;;1585660;73;760;-65
2022/03/22 10:57:01;;;;;;;;;;;24.10;27.00;;;;;;1580115;73;1102;-66
2022/03/22 10:59:03;;;;;;;;;;;24.00;27.30;;;;;;1582240;73;755;-66
2022/03/22 11:01:06;;;;;;;;;;;24.00;27.20;;;;;;1595356;73;1964;-68
2022/03/22 11:03:08;;;;;;;;;;;24.00;26.80;;;;;;1556201;74;722;-68
2022/03/22 11:05:10;;;;;;;;;;;24.00;27.00;;;;;;1595616;73;787;-67
2022/03/22 11:07:12;;;;;;;;;;;24.00;27.10;;;;;;1596034;74;1175;-67
2022/03/22 11:09:14;;;;;;;;;;;24.00;27.40;;;;;;1600418;73;678;-66
2022/03/22 11:11:16;;;;;;;;;;;23.90;24.50;;;;;;1608412;72;743;-67
2022/03/22 11:13:18;;;;;;;;;;;23.80;22.80;;;;;;1597275;74;726;-68
2022/03/22 11:15:20;;;;;;;;;;;23.70;25.30;;;;;;1596166;73;838;-64
2022/03/22 11:17:25;;;;;;;;;;;23.60;24.20;;;;;;1591687;73;1171;-64
2022/03/22 11:19:27;;;;;;;;;;;23.40;22.20;;;;;;1593071;73;843;-66
2022/03/22 11:21:29;;;;;;;;;;;23.30;25.40;;;;;;1595095;74;1896;-64
2022/03/22 11:23:31;;;;;;;;;;;23.40;25.00;;;;;;1597928;74;714;-64
2022/03/22 11:25:36;;;;;;;;;;;23.30;26.10;;;;;;1588458;73;717;-66
2022/03/22 11:27:39;;;;;;;;;;;23.30;26.40;;;;;;1590526;73;1169;-65
2022/03/22 11:29:41;;;;;;;;;;;23.30;27.00;;;;;;1587809;73;759;-68
2022/03/22 11:31:42;;;;;;;;;;;23.40;27.00;;;;;;1586366;73;723;-69
2022/03/22 11:36:15;;;;;;;;;;;23.50;27.30;;;;;;1586222;73;728;-69
2022/03/22 11:38:35;;;;;;;;;;;23.50;27.40;;;;;;1582941;73;1101;-68
2022/03/22 11:42:59;;;;;;;;;;;23.60;27.50;;;;;;1592401;73;684;-68
2022/03/22 11:45:02;;;;;;;;;;;23.50;27.80;;;;;;1590480;73;700;-69
2022/03/22 11:47:06;;;;;;;;;;;23.50;28.00;;;;;;1588569;73;1181;-68
2022/03/22 11:49:11;;;;;;;;;;;23.60;28.10;;;;;;1586420;73;832;-70
2022/03/22 11:51:13;;;;;;;;;;;23.60;28.10;;;;;;1590465;73;794;-69
2022/03/22 11:53:19;;;;;;;;;;;23.60;28.20;;;;;;1593703;73;698;-69
2022/03/22 11:55:26;;;;;;;;;;;23.60;28.40;;;;;;1589124;73;781;-70
2022/03/22 11:57:25;;;;;;;;;;;23.60;28.40;;;;;;1583864;73;1210;-70
2022/03/22 11:59:27;;;;;;;;;;;23.60;28.40;;;;;;1592787;74;818;-69
2022/03/22 12:01:35;;;;;;;;;;;23.60;28.60;;;;;;1590936;73;1926;-70
2022/03/22 12:03:37;;;;;;;;;;;23.60;28.60;;;;;;1596276;74;927;-70
2022/03/22 12:05:39;;;;;;;;;;;23.60;28.60;;;;;;1597689;74;726;-69
2022/03/22 12:07:41;;;;;;;;;;;23.60;28.70;;;;;;1586332;73;1144;-69
2022/03/22 12:09:43;;;;;;;;;;;23.60;28.70;;;;;;1602325;73;795;-67
2022/03/22 12:11:51;;;;;;;;;;;23.60;28.60;;;;;;1589291;73;711;-69
2022/03/22 12:13:53;;;;;;;;;;;23.60;28.70;;;;;;1589659;73;998;-69
2022/03/22 12:15:56;;;;;;;;;;;23.60;28.80;;;;;;1590289;73;725;-69
2022/03/22 12:17:58;;;;;;;;;;;23.60;28.80;;;;;;1593990;73;1132;-70
2022/03/22 12:20:00;;;;;;;;;;;23.60;28.50;;;;;;1586314;73;750;-70
2022/03/22 12:22:02;;;;;;;;;;;23.60;28.40;;;;;;1590743;73;1927;-68
2022/03/22 12:24:04;;;;;;;;;;;23.60;28.40;;;;;;1594359;73;697;-65
2022/03/22 12:26:06;;;;;;;;;;;23.60;27.20;;;;;;1597924;74;729;-65
2022/03/22 12:28:09;;;;;;;;;;;23.50;27.10;;;;;;1596919;74;1110;-65
2022/03/22 12:30:11;;;;;;;;;;;23.50;26.60;;;;;;1596822;74;788;-67
2022/03/22 12:32:14;;;;;;;;;;;23.50;27.10;;;;;;1595329;74;759;-65
2022/03/22 12:34:16;;;;;;;;;;;23.50;27.10;;;;;;1596572;73;820;-64
2022/03/22 12:36:19;;;;;;;;;;;23.50;27.60;;;;;;1595687;73;678;-65
2022/03/22 12:38:21;;;;;;;;;;;23.50;27.70;;;;;;1586826;73;1176;-64
2022/03/22 12:40:23;;;;;;;;;;;23.50;27.60;;;;;;1592511;73;813;-64
2022/03/22 12:42:24;;;;;;;;;;;23.50;27.80;;;;;;1585322;73;1939;-63
2022/03/22 12:44:26;;;;;;;;;;;23.40;26.80;;;;;;1586730;73;718;-65
2022/03/22 12:46:28;;;;;;;;;;;23.40;25.70;;;;;;1589374;73;706;-64
2022/03/22 12:48:30;;;;;;;;;;;23.30;25.40;;;;;;1598192;74;1157;-65
2022/03/22 12:50:32;;;;;;;;;;;23.20;25.00;;;;;;1596088;73;711;-64